Time;durP1;ratioP1;P1;durP2;ratioP2;P2;SDS_P1;SDS_P2;PMS_P1;PMS_P2;Temp;Humidity;BMP_temperature;BMP_pressure;BME280_temperature;BME280_humidity;BME280_pressure;Samples;Min_cycle;Max_cycle;Signal;HPM_P1;HPM_P2
2021/11/01 00:01:41;;;;;;;5.40;3.80;;;14.10;99.90;;;;;;5091928;28;20211;-58
2021/11/01 00:04:08;;;;;;;7.30;4.00;;;14.10;99.90;;;;;;5091957;28;20200;-59
2021/11/01 00:06:35;;;;;;;8.10;4.93;;;14.20;99.90;;;;;;5092253;28;20212;-58
2021/11/01 00:09:03;;;;;;;7.13;5.10;;;14.10;99.90;;;;;;5091782;28;20257;-58
2021/11/01 00:11:29;;;;;;;6.00;5.13;;;14.10;99.90;;;;;;5091953;28;20257;-60
2021/11/01 00:13:56;;;;;;;6.00;4.90;;;14.10;99.90;;;;;;5091697;28;20210;-58
2021/11/01 00:16:23;;;;;;;8.43;4.60;;;14.20;99.90;;;;;;5091700;28;20634;-56
2021/11/01 00:18:51;;;;;;;9.00;4.60;;;14.20;99.90;;;;;;5091680;28;20224;-60
2021/11/01 00:21:18;;;;;;;6.13;3.97;;;14.10;99.90;;;;;;5091767;28;20208;-60
2021/11/01 00:23:45;;;;;;;6.37;4.10;;;14.10;99.90;;;;;;5091655;28;20211;-58
2021/11/01 00:26:12;;;;;;;6.07;4.77;;;14.10;99.90;;;;;;5091511;28;20719;-57
2021/11/01 00:28:38;;;;;;;4.93;3.87;;;14.20;99.90;;;;;;5091229;28;20227;-60
2021/11/01 00:31:05;;;;;;;5.47;3.83;;;14.20;99.90;;;;;;5091745;28;20692;-58
2021/11/01 00:33:32;;;;;;;5.63;4.27;;;14.30;99.90;;;;;;5091658;28;20204;-57
2021/11/01 00:36:00;;;;;;;5.23;3.90;;;14.40;99.90;;;;;;5091763;28;20589;-60
2021/11/01 00:38:27;;;;;;;5.27;3.80;;;14.50;99.90;;;;;;5091201;28;20672;-60
2021/11/01 00:40:54;;;;;;;3.37;2.80;;;14.60;99.90;;;;;;5079096;22;20724;-59
2021/11/01 00:43:21;;;;;;;2.80;2.00;;;14.60;99.90;;;;;;5051353;28;20213;-59
2021/11/01 00:45:47;;;;;;;4.10;2.20;;;14.70;99.90;;;;;;5051119;28;20209;-59
2021/11/01 00:48:15;;;;;;;2.40;1.90;;;14.90;99.90;;;;;;5050935;28;20208;-59
2021/11/01 00:50:42;;;;;;;1.73;1.47;;;15.10;99.90;;;;;;5050916;28;20236;-59
2021/11/01 00:53:10;;;;;;;1.50;1.40;;;15.30;99.90;;;;;;5050893;28;20212;-59
2021/11/01 00:55:48;;;;;;;1.80;1.47;;;15.40;99.90;;;;;;5050849;28;20285;-59
2021/11/01 00:58:15;;;;;;;1.83;1.33;;;15.60;99.90;;;;;;5050886;28;20201;-59
2021/11/01 01:00:42;;;;;;;1.70;1.50;;;15.80;99.90;;;;;;5051030;28;20332;-60
2021/11/01 01:03:10;;;;;;;3.23;1.70;;;16.00;99.90;;;;;;5050937;28;20214;-59
2021/11/01 01:05:37;;;;;;;1.40;1.30;;;16.10;99.90;;;;;;5050645;28;20205;-59
2021/11/01 01:08:04;;;;;;;3.60;1.60;;;16.30;99.90;;;;;;5054031;28;20209;-59
2021/11/01 01:10:32;;;;;;;1.50;1.40;;;16.40;99.90;;;;;;5054659;28;20236;-59
2021/11/01 01:12:59;;;;;;;2.07;1.60;;;16.60;99.90;;;;;;5054943;28;20202;-59
2021/11/01 01:15:29;;;;;;;2.77;1.40;;;16.70;99.90;;;;;;5054844;28;20296;-59
2021/11/01 01:18:02;;;;;;;4.80;1.60;;;16.70;99.90;;;;;;5054612;28;20688;-60
2021/11/01 01:20:28;;;;;;;2.23;1.70;;;16.70;99.90;;;;;;5054662;28;20594;-60
2021/11/01 01:22:55;;;;;;;2.80;1.88;;;16.80;99.90;;;;;;5054585;28;20209;-60
2021/11/01 01:28:12;;;;;;;1.93;1.53;;;16.90;99.90;;;;;;5054253;28;20206;-59
2021/11/01 01:30:40;;;;;;;3.17;1.70;;;17.00;99.90;;;;;;5054435;28;20237;-59
2021/11/01 01:33:10;;;;;;;2.53;1.70;;;17.00;99.90;;;;;;5054884;28;20210;-59
2021/11/01 01:35:40;;;;;;;1.70;1.40;;;17.00;99.90;;;;;;5054317;28;20649;-59
2021/11/01 01:38:07;;;;;;;1.70;1.30;;;17.00;99.90;;;;;;5054458;28;20233;-59
2021/11/01 01:40:34;;;;;;;3.33;1.43;;;17.10;99.90;;;;;;5054144;28;20717;-60
2021/11/01 01:43:01;;;;;;;2.17;1.43;;;17.10;99.90;;;;;;5054285;28;20665;-59
2021/11/01 01:45:29;;;;;;;1.20;1.10;;;17.10;99.90;;;;;;5054111;28;20210;-60
2021/11/01 01:47:56;;;;;;;3.23;1.20;;;17.00;99.90;;;;;;5054047;28;20206;-60
2021/11/01 01:50:23;;;;;;;1.92;1.73;;;17.00;99.90;;;;;;5054422;28;20229;-59
2021/11/01 01:52:50;;;;;;;4.32;2.42;;;16.90;99.90;;;;;;5053941;28;20682;-59
2021/11/01 01:55:18;;;;;;;3.03;1.77;;;16.80;99.90;;;;;;5054090;28;20696;-59
2021/11/01 01:57:45;;;;;;;2.83;1.83;;;16.80;99.90;;;;;;5054303;28;20202;-59
2021/11/01 02:00:22;;;;;;;4.00;1.90;;;16.90;99.90;;;;;;5054664;28;20229;-59
2021/11/01 02:02:50;;;;;;;2.83;1.70;;;16.70;99.90;;;;;;5054403;28;20635;-60
2021/11/01 02:05:17;;;;;;;4.87;1.23;;;16.60;99.90;;;;;;5053816;28;20688;-60
2021/11/01 02:07:50;;;;;;;3.63;1.20;;;16.40;99.90;;;;;;5053961;28;20232;-59
2021/11/01 02:10:22;;;;;;;3.03;1.33;;;16.20;99.90;;;;;;5053743;28;20236;-59
2021/11/01 02:12:54;;;;;;;1.70;1.00;;;16.10;99.90;;;;;;5053727;28;20554;-59
2021/11/01 02:15:26;;;;;;;3.17;1.10;;;15.80;99.90;;;;;;5053707;28;20205;-59
2021/11/01 02:17:57;;;;;;;1.57;0.90;;;15.60;99.90;;;;;;5053597;28;20213;-59
2021/11/01 02:20:38;;;;;;;2.80;0.97;;;15.60;99.90;;;;;;5053734;28;20623;-59
2021/11/01 02:23:13;;;;;;;2.93;1.03;;;15.50;99.90;;;;;;5053656;28;20233;-60
2021/11/01 02:25:43;;;;;;;3.70;1.10;;;15.50;99.90;;;;;;5053590;28;20186;-59
2021/11/01 02:28:11;;;;;;;2.47;0.97;;;15.50;99.90;;;;;;5053586;28;20388;-59
2021/11/01 02:30:40;;;;;;;3.73;1.20;;;15.50;99.90;;;;;;5053401;28;20233;-58
2021/11/01 02:33:07;;;;;;;2.30;0.90;;;15.50;99.90;;;;;;5053427;28;20213;-59
2021/11/01 02:35:35;;;;;;;2.30;0.90;;;15.50;99.90;;;;;;5053328;28;20241;-59
2021/11/01 02:38:04;;;;;;;1.77;0.90;;;15.40;99.90;;;;;;5053190;28;20209;-59
2021/11/01 02:40:31;;;;;;;2.60;1.20;;;15.40;99.90;;;;;;5052995;28;20351;-60
2021/11/01 02:43:00;;;;;;;3.37;1.07;;;15.30;99.90;;;;;;5053219;28;20225;-60
2021/11/01 02:45:28;;;;;;;1.87;1.00;;;15.30;99.90;;;;;;5053026;28;20229;-58
2021/11/01 02:47:54;;;;;;;2.63;0.93;;;15.40;99.90;;;;;;5053082;28;20209;-59
2021/11/01 02:50:22;;;;;;;2.63;1.13;;;15.40;99.90;;;;;;5052887;28;20221;-60
2021/11/01 02:52:49;;;;;;;3.67;1.00;;;15.30;99.90;;;;;;5053040;28;20202;-59
2021/11/01 02:55:18;;;;;;;3.17;0.80;;;15.30;99.90;;;;;;5053102;28;20208;-59
2021/11/01 02:57:45;;;;;;;2.73;0.90;;;15.20;99.90;;;;;;5053064;28;20205;-59
2021/11/01 03:00:15;;;;;;;3.17;0.90;;;15.30;99.90;;;;;;5052919;28;20232;-58
2021/11/01 03:02:42;;;;;;;2.00;0.63;;;15.20;99.90;;;;;;5053128;28;20206;-59
2021/11/01 03:05:12;;;;;;;2.93;1.00;;;15.00;99.90;;;;;;5052902;28;20711;-60
2021/11/01 03:07:40;;;;;;;3.60;1.20;;;15.00;99.90;;;;;;5054363;28;20206;-60
2021/11/01 03:10:10;;;;;;;2.60;1.00;;;14.90;99.90;;;;;;5053287;28;20241;-59
2021/11/01 03:12:38;;;;;;;3.10;1.00;;;14.90;99.90;;;;;;5052804;28;20214;-60
2021/11/01 03:15:09;;;;;;;2.67;0.87;;;14.90;99.90;;;;;;5053182;28;20210;-59
2021/11/01 03:17:39;;;;;;;3.27;1.03;;;14.90;99.90;;;;;;5052534;28;20213;-60
2021/11/01 03:20:09;;;;;;;2.70;0.97;;;14.80;99.90;;;;;;5053110;28;20229;-60
2021/11/01 03:22:38;;;;;;;3.90;0.83;;;14.70;99.90;;;;;;5052903;28;20239;-59
2021/11/01 03:25:14;;;;;;;1.70;0.70;;;14.70;99.90;;;;;;5052699;28;20247;-59
2021/11/01 03:27:44;;;;;;;2.20;0.83;;;14.70;99.90;;;;;;5052393;28;20209;-58
2021/11/01 03:30:12;;;;;;;2.67;0.80;;;14.60;99.90;;;;;;5051752;28;20275;-59
2021/11/01 03:32:40;;;;;;;4.87;1.07;;;14.60;99.90;;;;;;5052440;28;20309;-60
2021/11/01 03:35:08;;;;;;;1.80;0.77;;;14.60;99.90;;;;;;5052259;28;20205;-59
2021/11/01 03:37:36;;;;;;;3.77;1.20;;;14.60;99.90;;;;;;5052244;28;20201;-60
2021/11/01 03:40:04;;;;;;;1.83;0.93;;;14.60;99.90;;;;;;5052140;28;20267;-59
2021/11/01 03:42:31;;;;;;;3.07;0.80;;;14.60;99.90;;;;;;5052021;28;20206;-59
2021/11/01 03:45:02;;;;;;;4.47;1.10;;;14.40;99.90;;;;;;5052101;28;20206;-60
2021/11/01 03:47:33;;;;;;;5.07;1.13;;;14.40;99.90;;;;;;5052436;28;20309;-59
2021/11/01 03:50:05;;;;;;;1.97;0.90;;;14.50;99.90;;;;;;5051773;28;20696;-59
2021/11/01 03:52:35;;;;;;;4.40;0.90;;;14.40;99.90;;;;;;5052014;28;20244;-59
2021/11/01 03:55:02;;;;;;;2.80;1.00;;;14.40;99.90;;;;;;5052051;28;20241;-59
2021/11/01 03:57:29;;;;;;;2.43;0.87;;;14.40;99.90;;;;;;5052248;28;20266;-59
2021/11/01 03:59:56;;;;;;;1.97;0.83;;;14.40;99.90;;;;;;5052030;28;20222;-60
2021/11/01 04:02:23;;;;;;;3.17;1.03;;;14.20;99.90;;;;;;5052380;28;20611;-59
2021/11/01 04:04:52;;;;;;;4.70;1.10;;;14.20;99.90;;;;;;5051827;28;20677;-59
2021/11/01 04:07:22;;;;;;;5.03;0.97;;;14.20;99.90;;;;;;5052222;28;20213;-59
2021/11/01 04:09:48;;;;;;;3.37;1.00;;;14.10;99.90;;;;;;5051611;28;20328;-59
2021/11/01 04:12:15;;;;;;;3.03;1.10;;;14.00;99.90;;;;;;5051835;28;20201;-59
2021/11/01 04:14:45;;;;;;;3.23;0.90;;;13.90;99.90;;;;;;5051572;28;20210;-59
2021/11/01 04:17:20;;;;;;;4.53;0.93;;;13.90;99.90;;;;;;5051631;28;20205;-59
2021/11/01 04:19:55;;;;;;;4.40;1.00;;;13.80;99.90;;;;;;5051307;28;20225;-59
2021/11/01 04:22:23;;;;;;;3.37;0.90;;;13.80;99.90;;;;;;5051396;28;20669;-59
2021/11/01 04:24:50;;;;;;;4.07;0.90;;;13.70;99.90;;;;;;5051415;28;20286;-59
2021/11/01 04:27:17;;;;;;;3.23;0.67;;;13.70;99.90;;;;;;5051730;28;20229;-60
2021/11/01 04:29:44;;;;;;;3.07;0.90;;;13.70;99.90;;;;;;5051147;28;20685;-59
2021/11/01 04:32:17;;;;;;;2.67;0.90;;;13.60;99.90;;;;;;5051367;28;20233;-59
2021/11/01 04:34:47;;;;;;;3.00;0.70;;;13.70;99.90;;;;;;5051785;28;20206;-59
2021/11/01 04:37:14;;;;;;;4.77;1.10;;;13.60;99.90;;;;;;5051046;28;20691;-58
2021/11/01 04:39:54;;;;;;;4.87;1.27;;;13.60;99.90;;;;;;5050931;28;20229;-58
2021/11/01 04:42:45;;;;;;;4.20;1.10;;;13.50;99.90;;;;;;5050300;28;20216;-59
2021/11/01 04:53:37;;;;;;;2.10;0.90;;;13.40;99.90;;;;;;5050919;28;20279;-59
2021/11/01 04:56:06;;;;;;;2.60;1.23;;;13.20;99.90;;;;;;5050921;28;20685;-59
2021/11/01 04:58:33;;;;;;;3.47;0.93;;;13.20;99.90;;;;;;5050849;28;20591;-58
2021/11/01 05:00:59;;;;;;;4.57;1.23;;;13.20;99.90;;;;;;5050815;28;20221;-59
2021/11/01 05:03:36;;;;;;;4.97;1.10;;;13.20;99.90;;;;;;5050507;28;20206;-59
2021/11/01 05:06:04;;;;;;;3.17;0.90;;;13.30;99.90;;;;;;5050628;28;20205;-59
2021/11/01 05:08:39;;;;;;;2.80;0.70;;;13.40;99.90;;;;;;5050764;28;20309;-59
2021/11/01 05:11:14;;;;;;;4.60;1.47;;;13.40;99.90;;;;;;5050629;28;20239;-58
2021/11/01 05:13:41;;;;;;;4.37;1.07;;;13.40;99.90;;;;;;5050657;28;20209;-58
2021/11/01 05:16:12;;;;;;;2.67;1.03;;;13.40;99.90;;;;;;5050576;28;20216;-60
2021/11/01 05:18:44;;;;;;;3.17;0.87;;;13.40;99.90;;;;;;5050946;28;20259;-58
2021/11/01 05:21:23;;;;;;;2.73;1.13;;;13.30;99.90;;;;;;5050872;28;20201;-58
2021/11/01 05:23:54;;;;;;;3.03;0.87;;;13.20;99.90;;;;;;5050802;28;20213;-60
2021/11/01 05:26:31;;;;;;;2.80;1.10;;;13.30;99.90;;;;;;5050984;28;20212;-59
2021/11/01 05:29:01;;;;;;;4.20;1.20;;;13.30;99.90;;;;;;5050468;28;20209;-59
2021/11/01 05:31:29;;;;;;;2.33;1.13;;;13.40;99.90;;;;;;5051088;28;20271;-58
2021/11/01 05:34:01;;;;;;;3.30;1.30;;;13.40;99.90;;;;;;5050937;28;20665;-58
2021/11/01 05:36:28;;;;;;;3.97;1.57;;;13.40;99.90;;;;;;5050850;28;20210;-59
2021/11/01 05:38:55;;;;;;;3.40;1.43;;;13.40;99.90;;;;;;5050425;28;20206;-59
2021/11/01 05:41:24;;;;;;;4.43;1.40;;;13.40;99.90;;;;;;5050587;28;20205;-59
2021/11/01 05:43:50;;;;;;;3.67;1.00;;;13.20;99.90;;;;;;5050366;28;20684;-60
2021/11/01 05:46:17;;;;;;;3.67;1.07;;;13.20;99.90;;;;;;5050838;28;20296;-59
2021/11/01 05:48:49;;;;;;;1.97;1.20;;;13.30;99.90;;;;;;5050501;28;20213;-59
2021/11/01 05:51:17;;;;;;;3.33;1.00;;;13.30;99.90;;;;;;5050703;28;20316;-58
2021/11/01 05:53:46;;;;;;;5.60;1.03;;;13.30;99.90;;;;;;5052963;28;20558;-58
2021/11/01 05:56:23;;;;;;;10.63;5.67;;;13.30;99.90;;;;;;5054728;28;20209;-59
2021/11/01 05:59:02;;;;;;;11.03;5.43;;;13.30;99.90;;;;;;5054816;28;20216;-59
2021/11/01 06:02:04;;;;;;;8.37;4.37;;;13.30;99.90;;;;;;5054602;28;20209;-59
2021/11/01 06:04:41;;;;;;;6.17;2.77;;;13.30;99.90;;;;;;5053730;28;20211;-59
2021/11/01 06:07:19;;;;;;;5.70;3.03;;;13.30;99.90;;;;;;5054167;28;20206;-58
2021/11/01 06:09:56;;;;;;;3.23;1.57;;;13.40;99.90;;;;;;5053779;28;20316;-59
2021/11/01 06:15:09;;;;;;;6.30;2.33;;;13.40;99.90;;;;;;5032550;28;20255;-59
2021/11/01 06:17:35;;;;;;;5.13;1.70;;;13.50;99.90;;;;;;5053800;28;20202;-59
2021/11/01 06:20:03;;;;;;;3.07;1.47;;;13.40;99.90;;;;;;5053468;28;20229;-59
2021/11/01 06:22:30;;;;;;;2.97;1.20;;;13.40;99.90;;;;;;5053628;28;20574;-59
2021/11/01 06:24:59;;;;;;;5.73;3.27;;;13.40;99.90;;;;;;5053383;28;20208;-60
2021/11/01 06:27:27;;;;;;;10.93;5.93;;;13.40;99.90;;;;;;5053755;28;20292;-59
2021/11/01 06:30:00;;;;;;;10.43;5.67;;;13.40;99.90;;;;;;5053565;28;20320;-59
2021/11/01 06:32:35;;;;;;;3.80;1.60;;;13.40;99.90;;;;;;5053530;28;20198;-59
2021/11/01 06:43:19;;;;;;;4.23;2.30;;;13.40;99.90;;;;;;5053633;28;20640;-58
2021/11/01 06:46:12;;;;;;;3.40;2.50;;;13.30;99.90;;;;;;5053453;28;20206;-58
2021/11/01 06:51:50;;;;;;;3.23;1.40;;;13.30;99.90;;;;;;5053328;28;20228;-59
2021/11/01 06:54:32;;;;;;;3.50;1.10;;;13.30;99.90;;;;;;5053170;28;20237;-59
2021/11/01 07:16:29;;;;;;;2.97;1.33;;;13.20;99.90;;;;;;5052745;28;20886;-60
2021/11/01 07:19:01;;;;;;;3.53;1.33;;;13.30;99.90;;;;;;5052449;28;20260;-60
2021/11/01 07:21:45;;;;;;;15.33;8.97;;;13.30;99.90;;;;;;5052445;28;20313;-59
2021/11/01 08:22:41;;;;;;;5.17;2.17;;;13.40;99.90;;;;;;5108023;28;20678;-61
2021/11/01 08:28:18;;;;;;;8.33;5.10;;;13.50;99.90;;;;;;5094421;28;20206;-61
2021/11/01 08:39:36;;;;;;;3.47;1.63;;;13.60;99.90;;;;;;5097026;28;20206;-61
2021/11/01 08:48:04;;;;;;;2.13;0.90;;;13.60;99.90;;;;;;5094410;28;20320;-61
2021/11/01 09:04:44;;;;;;;2.00;1.20;;;13.50;99.90;;;;;;5031380;28;20201;-60
2021/11/01 09:07:40;;;;;;;1.80;1.20;;;13.50;99.90;;;;;;5084979;28;20269;-60
2021/11/01 09:13:22;;;;;;;2.23;0.87;;;13.70;99.90;;;;;;5059041;28;20215;-62
2021/11/01 09:18:48;;;;;;;2.17;1.10;;;14.00;99.90;;;;;;5093461;28;20728;-60
2021/11/01 09:26:47;;;;;;;3.87;1.60;;;14.20;99.90;;;;;;5077626;28;20199;-60
2021/11/01 09:29:23;;;;;;;2.57;0.90;;;14.20;99.90;;;;;;5092979;28;20586;-60
2021/11/01 09:37:41;;;;;;;2.80;0.77;;;14.40;99.90;;;;;;5093320;28;20252;-60
2021/11/01 09:42:55;;;;;;;1.90;1.20;;;14.40;99.90;;;;;;5093133;28;20246;-61
2021/11/01 09:45:25;;;;;;;1.43;0.73;;;14.40;99.90;;;;;;5093393;28;20205;-61
2021/11/01 09:47:53;;;;;;;2.57;0.53;;;14.30;99.90;;;;;;5093984;28;20226;-62
2021/11/01 09:50:23;;;;;;;1.73;1.03;;;14.20;99.90;;;;;;5092998;28;20256;-60
2021/11/01 09:52:56;;;;;;;2.20;0.83;;;14.20;99.90;;;;;;5093436;28;20691;-61
2021/11/01 09:55:42;;;;;;;1.60;0.70;;;14.20;99.90;;;;;;5091788;28;20204;-61
2021/11/01 10:00:57;;;;;;;0.73;0.57;;;14.50;99.90;;;;;;5092610;28;20290;-60
2021/11/01 10:03:31;;;;;;;3.97;0.90;;;14.60;99.90;;;;;;5092460;28;20208;-60
2021/11/01 10:05:59;;;;;;;1.43;0.63;;;14.70;99.90;;;;;;5092565;28;20206;-60
2021/11/01 10:08:26;;;;;;;0.87;0.63;;;14.70;99.90;;;;;;5092364;28;20698;-60
2021/11/01 10:10:53;;;;;;;2.90;0.60;;;14.70;99.90;;;;;;5092265;28;20721;-61
2021/11/01 10:13:20;;;;;;;1.67;0.70;;;14.80;99.90;;;;;;5092557;28;20212;-60
2021/11/01 10:18:43;;;;;;;0.77;0.57;;;15.00;99.90;;;;;;5092201;28;20211;-61
2021/11/01 10:21:10;;;;;;;1.40;0.73;;;14.90;99.90;;;;;;5092245;28;20675;-61
2021/11/01 10:23:44;;;;;;;0.70;0.50;;;14.90;99.90;;;;;;5092187;28;20208;-61
2021/11/01 10:26:15;;;;;;;0.67;0.50;;;14.80;99.90;;;;;;5092005;28;20203;-60
2021/11/01 10:28:43;;;;;;;1.10;0.60;;;14.60;99.90;;;;;;5092216;28;20243;-60
2021/11/01 10:31:13;;;;;;;1.30;0.90;;;14.50;99.90;;;;;;5092067;28;20623;-61
2021/11/01 10:33:44;;;;;;;2.50;0.80;;;14.40;99.90;;;;;;5092494;28;20204;-60
2021/11/01 10:36:11;;;;;;;1.00;0.90;;;14.30;99.90;;;;;;5092450;28;20658;-60
2021/11/01 10:38:41;;;;;;;2.63;1.30;;;14.20;99.90;;;;;;5091794;28;20573;-60
2021/11/01 10:41:13;;;;;;;2.07;1.60;;;14.20;99.90;;;;;;5091906;28;20220;-60
2021/11/01 10:43:49;;;;;;;1.73;1.37;;;14.20;99.90;;;;;;5091881;28;20204;-61
2021/11/01 11:11:33;;;;;;;1.73;0.70;;;14.10;99.90;;;;;;5092230;28;20666;-62
2021/11/01 11:14:07;;;;;;;1.53;0.80;;;14.20;99.90;;;;;;5092359;28;20307;-64
2021/11/01 11:19:38;;;;;;;1.50;0.93;;;14.10;99.90;;;;;;5076217;28;20219;-67
2021/11/01 11:22:25;;;;;;;3.20;1.70;;;14.10;99.90;;;;;;5091769;28;20764;-66
2021/11/01 11:25:11;;;;;;;2.07;0.80;;;14.10;99.90;;;;;;5091829;28;20298;-59
2021/11/01 11:27:52;;;;;;;1.07;0.50;;;14.10;99.90;;;;;;5091530;28;20227;-59
2021/11/01 11:30:45;;;;;;;1.37;0.80;;;14.10;99.90;;;;;;5091251;28;20231;-59
2021/11/01 11:33:45;;;;;;;2.00;1.00;;;14.10;99.90;;;;;;5091106;28;20228;-59
2021/11/01 11:47:37;;;;;;;4.33;2.77;;;14.60;99.90;;;;;;5091267;28;20204;-58
2021/11/01 11:50:12;;;;;;;1.70;0.90;;;14.70;99.90;;;;;;5090733;28;20235;-58
2021/11/01 11:52:40;;;;;;;3.93;1.20;;;14.80;99.90;;;;;;5091352;28;20464;-58
2021/11/01 11:55:18;;;;;;;5.17;3.70;;;14.80;99.90;;;;;;5091022;28;20212;-59
2021/11/01 11:57:54;;;;;;;3.77;1.40;;;14.80;99.90;;;;;;5090892;28;20632;-58
2021/11/01 12:00:21;;;;;;;3.70;1.60;;;14.80;99.90;;;;;;5091081;28;20699;-59
2021/11/01 12:02:50;;;;;;;3.37;1.30;;;14.80;99.90;;;;;;5090955;28;20211;-58
2021/11/01 12:05:21;;;;;;;1.73;1.20;;;14.80;99.90;;;;;;5090981;28;20274;-59
2021/11/01 12:08:02;;;;;;;1.23;1.13;;;14.70;99.90;;;;;;5091286;28;20295;-59
2021/11/01 12:11:01;;;;;;;2.50;1.10;;;14.60;99.90;;;;;;5090913;28;20318;-59
2021/11/01 12:13:53;;;;;;;3.50;2.70;;;14.60;99.90;;;;;;5090734;28;20224;-59
2021/11/01 12:19:08;;;;;;;1.93;1.17;;;14.50;99.90;;;;;;5093922;28;20290;-60
2021/11/01 12:21:36;;;;;;;2.00;1.20;;;14.40;99.90;;;;;;5094713;28;20691;-60
2021/11/01 12:24:07;;;;;;;2.37;1.00;;;14.40;99.90;;;;;;5094310;28;20205;-59
2021/11/01 12:26:34;;;;;;;1.97;1.10;;;14.50;99.90;;;;;;5094832;28;20211;-62
2021/11/01 12:29:07;;;;;;;2.23;1.33;;;14.50;99.90;;;;;;5094943;28;20204;-60
2021/11/01 12:31:34;;;;;;;2.30;1.40;;;14.50;99.90;;;;;;5094983;28;20216;-59
2021/11/01 12:34:03;;;;;;;2.20;1.10;;;14.60;99.90;;;;;;5094499;28;20200;-60
2021/11/01 12:36:38;;;;;;;3.97;1.30;;;14.60;99.90;;;;;;5094429;28;20250;-60
2021/11/01 12:39:19;;;;;;;4.10;1.40;;;14.50;99.90;;;;;;5094602;28;20235;-59
2021/11/01 12:42:08;;;;;;;4.40;2.10;;;14.50;99.90;;;;;;5094913;28;20299;-60
2021/11/01 12:58:26;;;;;;;1.90;0.90;;;14.50;99.90;;;;;;5094030;28;20693;-61
2021/11/01 13:00:52;;;;;;;1.67;1.10;;;14.50;99.90;;;;;;5092830;28;20232;-61
2021/11/01 13:03:21;;;;;;;1.37;0.90;;;14.40;99.90;;;;;;5093266;28;20256;-64
2021/11/01 13:05:54;;;;;;;1.63;0.90;;;14.40;99.90;;;;;;5094457;28;20253;-64
2021/11/01 13:08:26;;;;;;;2.83;1.30;;;14.50;99.90;;;;;;5094747;28;20200;-64
2021/11/01 13:10:58;;;;;;;1.93;1.10;;;14.60;99.90;;;;;;5093923;28;20254;-63
2021/11/01 13:14:01;;;;;;;2.20;1.27;;;14.60;99.90;;;;;;5093953;28;20211;-63
2021/11/01 13:19:19;;;;;;;2.13;1.63;;;14.60;99.90;;;;;;5094835;28;20227;-62
2021/11/01 13:21:53;;;;;;;3.13;0.80;;;14.60;99.90;;;;;;5094734;28;20200;-62
2021/11/01 13:24:24;;;;;;;2.80;0.93;;;14.60;99.90;;;;;;5094112;28;20204;-60
2021/11/01 13:27:05;;;;;;;1.53;1.00;;;14.60;99.90;;;;;;5094427;28;20200;-60
2021/11/01 13:38:01;;;;;;;2.33;1.80;;;14.60;99.90;;;;;;5069180;28;20200;-60
2021/11/01 13:40:35;;;;;;;1.70;0.90;;;14.50;99.90;;;;;;5072644;28;20700;-61
2021/11/01 13:43:03;;;;;;;4.33;2.07;;;14.40;99.90;;;;;;5087327;23;20668;-61
2021/11/01 13:45:30;;;;;;;2.10;1.30;;;14.40;99.90;;;;;;5031778;28;20214;-58
2021/11/01 13:47:59;;;;;;;5.03;1.70;;;14.40;99.90;;;;;;5032698;28;20213;-59
2021/11/01 13:50:27;;;;;;;3.63;2.10;;;14.40;99.90;;;;;;5032508;28;20206;-59
2021/11/01 13:53:01;;;;;;;3.13;1.70;;;14.40;99.90;;;;;;5030410;28;20226;-60
2021/11/01 13:55:45;;;;;;;8.43;3.97;;;14.40;99.90;;;;;;5032414;28;20258;-62
2021/11/01 13:58:31;;;;;;;5.00;2.60;;;14.40;99.90;;;;;;5032416;28;20214;-65
2021/11/01 14:01:22;;;;;;;2.70;1.50;;;14.40;99.90;;;;;;5032463;28;20784;-57
2021/11/01 14:12:12;;;;;;;1.57;1.17;;;14.20;99.90;;;;;;5032260;28;20257;-57
2021/11/01 14:14:53;;;;;;;1.80;1.53;;;14.20;99.90;;;;;;5032172;28;20301;-58
2021/11/01 14:17:34;;;;;;;2.37;1.30;;;14.20;99.90;;;;;;5032101;28;20213;-57
2021/11/01 14:20:11;;;;;;;7.03;5.20;;;14.30;99.90;;;;;;5031799;28;20577;-56
2021/11/01 14:28:20;;;;;;;1.47;1.00;;;14.50;99.90;;;;;;5031753;28;20201;-58
2021/11/01 14:31:02;;;;;;;3.30;0.90;;;14.50;99.90;;;;;;5032001;28;20240;-58
2021/11/01 15:12:43;;;;;;;2.67;1.17;;;13.80;99.90;;;;;;5030922;28;20666;-56
2021/11/01 15:18:06;;;;;;;1.87;1.50;;;13.70;99.90;;;;;;5009910;28;20260;-58
2021/11/01 15:20:44;;;;;;;2.90;1.30;;;13.70;99.90;;;;;;5030794;28;20715;-56
2021/11/01 15:23:19;;;;;;;2.80;1.60;;;13.70;99.90;;;;;;5030892;28;20592;-57
2021/11/01 16:18:11;;;;;;;3.10;1.37;;;13.10;99.90;;;;;;5034147;28;20198;-58
2021/11/01 16:20:38;;;;;;;2.83;1.70;;;13.10;99.90;;;;;;5034173;28;20264;-58
2021/11/01 16:23:24;;;;;;;5.43;1.50;;;13.10;99.90;;;;;;5033926;28;20620;-57
2021/11/01 16:25:56;;;;;;;3.67;1.47;;;13.10;99.90;;;;;;5034200;28;20216;-57
2021/11/01 16:28:23;;;;;;;1.93;1.07;;;13.10;99.90;;;;;;5034046;28;20206;-57
2021/11/01 16:31:01;;;;;;;2.30;1.43;;;13.10;99.90;;;;;;5034022;28;20237;-56
2021/11/01 16:33:33;;;;;;;4.13;1.43;;;13.00;99.90;;;;;;5033777;28;20241;-58
2021/11/01 16:36:01;;;;;;;2.93;1.53;;;12.90;99.90;;;;;;5033949;28;20603;-58
2021/11/01 16:38:34;;;;;;;2.37;1.40;;;12.90;99.90;;;;;;5033965;28;20249;-57
2021/11/01 16:41:03;;;;;;;2.60;1.20;;;12.90;99.90;;;;;;5033750;28;20241;-58
2021/11/01 16:43:30;;;;;;;2.33;1.40;;;13.00;99.90;;;;;;5033459;28;20729;-57
2021/11/01 16:45:57;;;;;;;3.37;1.33;;;13.00;99.90;;;;;;5033462;28;20202;-57
2021/11/01 16:48:24;;;;;;;1.70;1.00;;;13.00;99.90;;;;;;5033783;28;20217;-57
2021/11/01 16:50:55;;;;;;;2.20;1.20;;;13.00;99.90;;;;;;5033464;28;20230;-58
2021/11/01 16:53:23;;;;;;;1.63;1.27;;;13.10;99.90;;;;;;5033949;28;20229;-57
2021/11/01 16:55:51;;;;;;;3.13;1.33;;;13.10;99.90;;;;;;5033355;28;20214;-58
2021/11/01 16:58:24;;;;;;;2.93;1.13;;;13.10;99.90;;;;;;5033141;28;20206;-57
2021/11/01 17:00:56;;;;;;;3.23;1.13;;;13.10;99.90;;;;;;5033475;28;20210;-58
2021/11/01 17:03:32;;;;;;;11.77;9.97;;;13.10;99.90;;;;;;5032802;28;20596;-57
2021/11/01 17:06:06;;;;;;;2.53;1.37;;;13.20;99.90;;;;;;5033430;28;20210;-57
2021/11/01 17:22:27;;;;;;;32.10;26.50;;;13.30;99.90;;;;;;5033036;28;20654;-57
2021/11/01 17:24:58;;;;;;;4.40;2.60;;;13.30;99.90;;;;;;5032994;28;20288;-58
2021/11/01 17:27:43;;;;;;;2.57;1.90;;;13.40;99.90;;;;;;5032957;28;20264;-57
2021/11/01 17:36:02;;;;;;;2.70;1.80;;;13.40;99.90;;;;;;5033207;28;20578;-58
2021/11/01 18:23:45;;;;;;;2.87;2.00;;;13.30;99.90;;;;;;5033036;28;20213;-58
2021/11/01 18:37:38;;;;;;;2.77;1.43;;;12.60;99.90;;;;;;5032431;28;20748;-59
2021/11/01 18:43:04;;;;;;;3.07;1.67;;;12.40;99.90;;;;;;5011047;28;20206;-61
2021/11/01 18:51:19;;;;;;;7.13;5.63;;;12.10;99.90;;;;;;5031919;28;20204;-60
2021/11/01 18:53:57;;;;;;;3.67;1.40;;;12.00;99.90;;;;;;5031340;28;20228;-61
2021/11/01 18:56:28;;;;;;;5.10;2.50;;;12.00;99.90;;;;;;5031724;28;20217;-62
2021/11/01 18:59:01;;;;;;;4.43;2.87;;;11.90;99.90;;;;;;5031212;28;20264;-60
2021/11/01 19:01:30;;;;;;;3.33;2.20;;;11.80;99.90;;;;;;5031573;28;20202;-60
2021/11/01 19:03:58;;;;;;;5.53;2.40;;;11.80;99.90;;;;;;5031607;28;20222;-60
2021/11/01 19:06:36;;;;;;;6.27;2.70;;;11.70;99.90;;;;;;5031298;28;20248;-59
2021/11/01 19:09:16;;;;;;;4.93;2.80;;;11.60;99.90;;;;;;5031688;28;20307;-57
2021/11/01 20:04:33;;;;;;;4.90;2.60;;;10.60;99.90;;;;;;4991971;28;20226;-60
2021/11/01 20:07:25;;;;;;;4.10;2.60;;;10.50;99.90;;;;;;4992213;28;20214;-62
2021/11/01 20:12:58;;;;;;;4.13;2.27;;;10.50;99.90;;;;;;4992141;28;20211;-65
2021/11/01 21:25:12;;;;;;;3.63;2.40;;;9.20;99.90;;;;;;4995617;28;20231;-70
2021/11/01 21:27:39;;;;;;;3.50;2.50;;;9.10;99.90;;;;;;4995888;28;20255;-71
2021/11/01 21:30:07;;;;;;;6.50;2.60;;;9.00;99.90;;;;;;4995074;28;20223;-72
2021/11/01 21:32:34;;;;;;;2.30;1.80;;;9.00;99.90;;;;;;4994861;28;20595;-72
2021/11/01 21:35:03;;;;;;;3.57;1.90;;;9.00;99.90;;;;;;4995654;28;20242;-72
2021/11/01 21:37:32;;;;;;;2.43;1.47;;;9.00;99.90;;;;;;4995111;28;20212;-71
2021/11/01 21:40:00;;;;;;;3.27;1.77;;;8.90;99.90;;;;;;4994920;28;20204;-71
2021/11/01 21:42:27;;;;;;;2.73;1.87;;;8.90;99.90;;;;;;4994986;28;20212;-72
2021/11/01 21:44:54;;;;;;;2.43;1.27;;;8.90;99.90;;;;;;4993569;28;20235;-70
2021/11/01 21:47:21;;;;;;;2.70;1.90;;;8.90;99.90;;;;;;4994385;28;20587;-71
2021/11/01 21:49:49;;;;;;;3.13;2.20;;;8.90;99.90;;;;;;4993961;28;20203;-71
2021/11/01 21:52:17;;;;;;;8.57;4.20;;;8.90;99.90;;;;;;4995077;28;20218;-72
2021/11/01 21:54:47;;;;;;;3.50;2.50;;;8.90;99.90;;;;;;4995990;28;20233;-70
2021/11/01 21:57:17;;;;;;;4.83;2.53;;;8.90;99.90;;;;;;4993951;28;20303;-71
2021/11/01 22:00:04;;;;;;;3.93;3.00;;;8.80;99.90;;;;;;4993695;28;20302;-71
2021/11/01 22:19:29;;;;;;;3.67;2.10;;;8.60;99.90;;;;;;4993169;28;20203;-71
2021/11/01 22:22:03;;;;;;;3.37;1.50;;;8.60;99.90;;;;;;4993782;28;20239;-70
2021/11/01 22:24:33;;;;;;;5.17;2.83;;;8.60;99.90;;;;;;4993337;28;20224;-71
2021/11/01 22:33:06;;;;;;;4.83;2.30;;;8.60;99.90;;;;;;4994443;28;20206;-70
2021/11/01 22:38:27;;;;;;;4.17;2.80;;;8.50;99.90;;;;;;4993927;28;20573;-70
2021/11/01 22:40:56;;;;;;;5.43;3.10;;;8.40;99.90;;;;;;4993901;28;20233;-70
2021/11/01 22:46:16;;;;;;;7.67;4.10;;;8.20;99.90;;;;;;4989359;28;20211;-71